createdAt,value
2022-08-17T00:00:11.042Z,6.10
2022-08-17T00:03:02.826Z,5.77
2022-08-17T00:05:32.421Z,6.25
2022-08-17T00:08:00.509Z,6.18
2022-08-17T00:10:28.637Z,5.97
2022-08-17T00:12:59.125Z,5.93
2022-08-17T00:15:28.600Z,6.10
2022-08-17T00:17:56.609Z,5.37
2022-08-17T00:20:32.043Z,5.57
2022-08-17T00:23:05.248Z,5.40
2022-08-17T00:25:33.268Z,6.07
2022-08-17T00:28:02.145Z,6.03
2022-08-17T00:30:51.255Z,5.90
2022-08-17T00:33:24.342Z,5.97
2022-08-17T00:35:52.636Z,6.30
2022-08-17T00:38:20.907Z,6.03
2022-08-17T00:40:51.784Z,6.47
2022-08-17T00:43:22.873Z,6.25
2022-08-17T00:45:52.317Z,6.20
2022-08-17T00:48:29.531Z,6.90
2022-08-17T00:51:03.447Z,6.90
2022-08-17T00:53:33.036Z,6.63
2022-08-17T00:56:04.065Z,6.07
2022-08-17T00:58:35.955Z,6.47
2022-08-17T01:01:07.073Z,6.77
2022-08-17T01:03:36.324Z,6.60
2022-08-17T01:06:05.543Z,6.43
2022-08-17T01:08:34.135Z,5.77
2022-08-17T01:11:04.180Z,5.83
2022-08-17T01:13:39.717Z,5.77
2022-08-17T01:16:16.039Z,6.07
2022-08-17T01:18:44.877Z,6.13
2022-08-17T01:21:19.429Z,5.67
2022-08-17T01:23:48.991Z,5.60
2022-08-17T01:26:17.752Z,6.40
2022-08-17T01:28:54.223Z,6.07
2022-08-17T01:31:24.836Z,5.40
2022-08-17T01:33:52.963Z,6.10
2022-08-17T01:36:21.011Z,5.47
2022-08-17T01:38:50.616Z,5.30
2022-08-17T01:41:18.809Z,5.30
2022-08-17T01:43:57.086Z,5.57
2022-08-17T01:46:27.090Z,5.43
2022-08-17T01:48:56.174Z,5.53
2022-08-17T01:51:24.967Z,5.43
2022-08-17T01:53:58.312Z,5.50
2022-08-17T01:56:27.326Z,5.87
2022-08-17T01:58:56.839Z,5.10
2022-08-17T02:01:26.976Z,5.63
2022-08-17T02:04:00.553Z,5.10
2022-08-17T02:06:30.556Z,5.00
2022-08-17T02:09:02.772Z,5.27
2022-08-17T02:11:32.941Z,5.00
2022-08-17T02:14:02.982Z,4.97
2022-08-17T02:16:36.657Z,5.20
2022-08-17T02:19:07.172Z,4.90
2022-08-17T02:21:35.297Z,4.67
2022-08-17T02:24:05.469Z,4.63
2022-08-17T02:26:33.525Z,5.20
2022-08-17T02:29:01.576Z,4.73
2022-08-17T02:31:31.231Z,4.50
2022-08-17T02:34:04.152Z,5.27
2022-08-17T02:36:33.999Z,5.17
2022-08-17T02:39:02.529Z,4.90
2022-08-17T02:41:31.861Z,4.77
2022-08-17T02:44:00.051Z,4.67
2022-08-17T02:46:28.374Z,4.70
2022-08-17T02:48:56.652Z,4.50
2022-08-17T02:51:24.673Z,4.77
2022-08-17T02:53:52.764Z,4.70
2022-08-17T02:56:42.086Z,4.73
2022-08-17T02:59:10.079Z,4.37
2022-08-17T03:01:38.147Z,4.63
2022-08-17T03:04:06.441Z,4.33
2022-08-17T03:06:34.461Z,4.43
2022-08-17T03:09:02.548Z,4.50
2022-08-17T03:11:30.535Z,4.63
2022-08-17T03:13:59.880Z,4.13
2022-08-17T03:16:27.939Z,4.70
2022-08-17T03:18:55.905Z,4.70
2022-08-17T03:21:23.996Z,4.50
2022-08-17T03:23:54.632Z,4.70
2022-08-17T03:26:22.833Z,4.73
2022-08-17T03:28:51.075Z,5.03
2022-08-17T03:31:21.528Z,5.13
2022-08-17T03:33:49.687Z,7.70
2022-08-17T03:36:17.673Z,5.37
2022-08-17T03:38:45.665Z,13.77
2022-08-17T03:41:14.157Z,5.50
2022-08-17T03:43:42.176Z,8.20
2022-08-17T03:46:35.331Z,5.50
2022-08-17T03:49:25.995Z,5.43
2022-08-17T03:52:11.344Z,5.13
2022-08-17T03:54:57.242Z,5.57
2022-08-17T03:57:25.836Z,5.10
2022-08-17T03:59:54.316Z,6.83
2022-08-17T04:02:25.502Z,5.50
2022-08-17T04:04:54.904Z,5.57
2022-08-17T04:07:26.381Z,5.80
2022-08-17T04:09:54.437Z,5.97
2022-08-17T04:12:24.106Z,5.83
2022-08-17T04:14:54.671Z,5.53
2022-08-17T04:17:25.266Z,5.57
2022-08-17T04:19:55.453Z,6.60
2022-08-17T04:22:32.945Z,5.87
2022-08-17T04:25:08.166Z,6.30
2022-08-17T04:27:36.156Z,6.10
2022-08-17T04:30:06.009Z,5.80
2022-08-17T04:33:05.446Z,6.57
2022-08-17T04:35:25.631Z,6.03
2022-08-17T04:37:53.736Z,8.17
2022-08-17T04:40:40.318Z,6.33
2022-08-17T04:43:10.526Z,5.97
2022-08-17T04:45:55.239Z,6.27
2022-08-17T04:48:34.807Z,6.27
2022-08-17T04:51:09.889Z,5.70
2022-08-17T04:53:39.538Z,5.80
2022-08-17T04:56:08.046Z,6.20
2022-08-17T04:58:46.301Z,9.40
2022-08-17T05:01:14.440Z,8.40
2022-08-17T05:03:43.012Z,5.47
2022-08-17T05:06:12.467Z,9.47
2022-08-17T05:08:40.657Z,5.50
2022-08-17T05:11:08.700Z,5.60
2022-08-17T05:13:36.686Z,11.07
2022-08-17T05:16:05.787Z,5.63
2022-08-17T05:18:34.242Z,5.30
2022-08-17T05:21:03.664Z,5.70
2022-08-17T05:23:42.230Z,5.60
2022-08-17T05:26:12.999Z,5.40
2022-08-17T05:28:53.862Z,5.40
2022-08-17T05:31:22.247Z,4.80
2022-08-17T05:33:50.592Z,5.70
2022-08-17T05:36:37.966Z,5.13
2022-08-17T05:39:08.020Z,5.23
2022-08-17T05:41:36.004Z,4.83
2022-08-17T05:44:05.357Z,5.30
2022-08-17T05:46:36.622Z,7.53
2022-08-17T05:49:07.902Z,5.53
2022-08-17T05:52:11.028Z,5.13
2022-08-17T05:54:58.224Z,4.93
2022-08-17T05:57:47.568Z,13.17
2022-08-17T06:00:26.270Z,5.30
2022-08-17T06:03:23.205Z,4.90
2022-08-17T06:05:58.875Z,4.60
2022-08-17T06:08:34.048Z,4.57
2022-08-17T06:11:10.546Z,6.63
2022-08-17T06:14:05.465Z,4.60
2022-08-17T06:16:37.006Z,4.30
2022-08-17T06:19:07.698Z,4.80
2022-08-17T06:21:37.605Z,4.90
2022-08-17T06:24:09.518Z,5.00
2022-08-17T06:26:43.452Z,5.10
2022-08-17T06:29:18.893Z,4.90
2022-08-17T06:31:47.554Z,5.17
2022-08-17T06:34:15.655Z,5.40
2022-08-17T06:36:50.812Z,4.70
2022-08-17T06:39:31.295Z,14.80
2022-08-17T06:42:09.583Z,5.60
2022-08-17T06:45:03.468Z,6.33
2022-08-17T06:47:36.653Z,6.40
2022-08-17T06:50:15.445Z,5.03
2022-08-17T06:52:50.167Z,10.13
2022-08-17T06:55:21.449Z,9.30
2022-08-17T06:57:53.291Z,7.07
2022-08-17T07:00:24.569Z,5.70
2022-08-17T07:02:56.428Z,5.27
2022-08-17T07:05:28.333Z,5.83
2022-08-17T07:08:04.116Z,19.13
2022-08-17T07:10:41.057Z,19.87
2022-08-17T07:13:22.540Z,7.00
2022-08-17T07:15:56.408Z,6.13
2022-08-17T07:18:27.520Z,6.17
2022-08-17T07:20:59.551Z,13.43
2022-08-17T07:23:38.703Z,6.90
2022-08-17T07:26:07.315Z,7.03
2022-08-17T07:28:38.028Z,10.27
2022-08-17T07:31:07.039Z,6.33
2022-08-17T07:33:36.913Z,6.60
2022-08-17T07:36:05.767Z,7.40
2022-08-17T07:38:35.645Z,6.90
2022-08-17T07:41:06.310Z,6.22
2022-08-17T07:43:37.831Z,6.93
2022-08-17T07:46:33.342Z,7.18
2022-08-17T07:49:20.508Z,6.45
2022-08-17T07:52:00.017Z,6.87
2022-08-17T07:54:48.424Z,6.63
2022-08-17T07:57:32.014Z,9.90
2022-08-17T08:00:19.772Z,8.23
2022-08-17T08:03:03.534Z,8.60
2022-08-17T08:05:49.400Z,7.57
2022-08-17T08:08:27.530Z,7.05
2022-08-17T08:11:01.380Z,7.00
2022-08-17T08:13:32.260Z,6.80
2022-08-17T08:16:21.014Z,9.32
2022-08-17T08:18:56.038Z,9.65
2022-08-17T08:21:33.300Z,8.23
2022-08-17T08:24:12.306Z,11.57
2022-08-17T08:26:48.972Z,12.50
2022-08-17T08:29:23.675Z,9.15
2022-08-17T08:32:02.288Z,8.45
2022-08-17T08:34:46.335Z,11.63
2022-08-17T08:37:39.079Z,7.68
2022-08-17T08:40:21.780Z,7.05
2022-08-17T08:42:54.032Z,7.63
2022-08-17T08:45:26.244Z,8.40
2022-08-17T08:48:22.956Z,7.82
2022-08-17T08:51:09.908Z,8.57
2022-08-17T08:53:48.617Z,8.70
2022-08-17T08:56:24.214Z,10.57
2022-08-17T08:58:56.978Z,7.88
2022-08-17T09:01:29.547Z,7.32
2022-08-17T09:04:23.353Z,7.00
2022-08-17T09:06:59.305Z,7.45
2022-08-17T09:09:33.588Z,7.22
2022-08-17T09:12:06.753Z,8.40
2022-08-17T09:14:46.631Z,7.90
2022-08-17T09:17:18.379Z,7.28
2022-08-17T09:19:50.839Z,7.82
2022-08-17T09:22:31.564Z,7.15
2022-08-17T09:25:06.864Z,6.40
2022-08-17T09:27:39.780Z,7.65
2022-08-17T09:30:10.848Z,7.28
2022-08-17T09:32:42.262Z,7.28
2022-08-17T09:35:19.867Z,6.68
2022-08-17T09:37:54.792Z,6.07
2022-08-17T09:40:25.743Z,6.45
2022-08-17T09:42:57.789Z,6.05
2022-08-17T09:45:31.842Z,7.22
2022-08-17T09:48:05.336Z,6.45
2022-08-17T09:51:03.487Z,6.00
2022-08-17T09:53:32.258Z,6.38
2022-08-17T09:56:14.159Z,6.43
2022-08-17T09:58:56.490Z,6.32
2022-08-17T10:01:31.588Z,6.65
2022-08-17T10:04:14.364Z,5.53
2022-08-17T10:06:50.155Z,6.45
2022-08-17T10:09:24.736Z,5.75
2022-08-17T10:12:17.334Z,5.93
2022-08-17T10:14:55.145Z,5.70
2022-08-17T10:17:28.108Z,6.10
2022-08-17T10:20:01.181Z,5.80
2022-08-17T10:22:54.845Z,5.63
2022-08-17T10:25:56.745Z,5.53
2022-08-17T10:28:30.225Z,5.78
2022-08-17T10:31:30.839Z,5.20
2022-08-17T10:33:56.665Z,5.35
2022-08-17T10:36:28.215Z,5.38
2022-08-17T10:39:06.412Z,5.18
2022-08-17T10:41:40.815Z,6.10
2022-08-17T10:44:39.054Z,5.07
2022-08-17T10:47:09.380Z,4.90
2022-08-17T10:49:39.341Z,4.90
2022-08-17T10:52:52.495Z,4.85
2022-08-17T10:55:22.164Z,4.65
2022-08-17T10:57:51.585Z,4.75
2022-08-17T11:01:12.903Z,4.28
2022-08-17T11:03:53.447Z,4.85
2022-08-17T11:06:26.741Z,5.47
2022-08-17T11:09:09.821Z,6.05
2022-08-17T11:12:12.830Z,4.53
2022-08-17T11:14:56.604Z,4.43
2022-08-17T11:18:01.596Z,4.65
2022-08-17T11:20:48.921Z,4.35
2022-08-17T11:23:57.361Z,4.95
2022-08-17T11:26:28.457Z,4.28
2022-08-17T11:29:00.138Z,4.35
2022-08-17T11:31:38.561Z,4.40
2022-08-17T11:34:14.503Z,4.40
2022-08-17T11:37:04.904Z,4.70
2022-08-17T11:40:06.670Z,4.82
2022-08-17T11:43:00.752Z,4.40
2022-08-17T11:45:41.706Z,4.18
2022-08-17T11:48:36.350Z,4.25
2022-08-17T11:51:30.379Z,4.55
2022-08-17T11:54:31.823Z,4.60
2022-08-17T11:56:59.173Z,4.40
2022-08-17T11:59:56.260Z,4.22
2022-08-17T12:02:49.217Z,4.85
2022-08-17T12:05:33.992Z,4.10
2022-08-17T12:08:14.810Z,4.60
2022-08-17T12:10:53.528Z,4.43
2022-08-17T12:13:23.845Z,4.70
2022-08-17T12:15:59.998Z,4.25
2022-08-17T12:18:33.779Z,4.13
2022-08-17T12:21:30.350Z,4.25
2022-08-17T12:24:05.359Z,4.47
2022-08-17T12:26:35.099Z,4.65
2022-08-17T12:29:06.986Z,4.43
2022-08-17T12:31:44.338Z,4.05
2022-08-17T12:34:16.623Z,4.18
2022-08-17T12:36:47.009Z,3.72
2022-08-17T12:39:21.196Z,4.45
2022-08-17T12:41:52.373Z,4.25
2022-08-17T12:44:22.737Z,4.40
2022-08-17T12:46:54.259Z,4.13
2022-08-17T12:49:30.291Z,4.25
2022-08-17T12:52:07.206Z,4.18
2022-08-17T12:54:46.979Z,4.10
2022-08-17T12:57:17.406Z,4.22
2022-08-17T12:59:47.965Z,4.05
2022-08-17T13:02:32.146Z,4.25
2022-08-17T13:05:02.380Z,3.83
2022-08-17T13:07:35.386Z,4.72
2022-08-17T13:10:05.130Z,4.35
2022-08-17T13:12:36.205Z,4.32
2022-08-17T13:15:04.521Z,4.30
2022-08-17T13:17:36.384Z,4.45
2022-08-17T13:20:07.322Z,4.38
2022-08-17T13:22:36.954Z,4.10
2022-08-17T13:25:07.442Z,4.00
2022-08-17T13:27:35.596Z,3.88
2022-08-17T13:30:06.805Z,4.47
2022-08-17T13:32:43.823Z,4.43
2022-08-17T13:35:46.481Z,4.93
2022-08-17T13:38:41.207Z,4.28
2022-08-17T13:41:09.324Z,4.72
2022-08-17T13:43:45.042Z,4.68
2022-08-17T13:46:19.974Z,4.28
2022-08-17T13:48:48.778Z,4.70
2022-08-17T13:51:28.756Z,4.25
2022-08-17T13:54:02.286Z,4.43
2022-08-17T13:56:46.693Z,4.25
2022-08-17T13:59:17.255Z,4.28
2022-08-17T14:02:05.722Z,3.95
2022-08-17T14:04:34.439Z,4.43
2022-08-17T14:07:05.562Z,4.35
2022-08-17T14:09:37.556Z,3.80
2022-08-17T14:12:07.947Z,4.18
2022-08-17T14:14:36.407Z,3.90
2022-08-17T14:17:04.703Z,4.10
2022-08-17T14:19:32.886Z,4.68
2022-08-17T14:22:01.173Z,3.67
2022-08-17T14:24:30.591Z,4.20
2022-08-17T14:27:01.379Z,4.43
2022-08-17T14:29:31.211Z,4.15
2022-08-17T14:32:02.701Z,3.70
2022-08-17T14:34:30.815Z,4.35
2022-08-17T14:36:58.899Z,4.60
2022-08-17T14:39:26.986Z,4.72
2022-08-17T14:41:55.227Z,4.18
2022-08-17T14:44:24.719Z,4.57
2022-08-17T14:46:53.103Z,4.28
2022-08-17T14:49:21.140Z,4.47
2022-08-17T14:51:49.572Z,4.05
2022-08-17T14:54:34.135Z,4.47
2022-08-17T14:57:23.262Z,4.10
2022-08-17T14:59:54.920Z,4.60
2022-08-17T15:02:29.751Z,4.35
2022-08-17T15:05:00.539Z,4.30
2022-08-17T15:07:30.259Z,4.18
2022-08-17T15:10:00.590Z,4.55
2022-08-17T15:12:32.680Z,4.03
2022-08-17T15:15:04.755Z,3.70
2022-08-17T15:17:44.553Z,4.20
2022-08-17T15:20:15.853Z,4.22
2022-08-17T15:22:44.982Z,4.22
2022-08-17T15:25:14.930Z,4.63
2022-08-17T15:27:43.050Z,4.43
2022-08-17T15:30:13.639Z,3.90
2022-08-17T15:32:45.769Z,4.00
2022-08-17T15:35:27.899Z,5.22
2022-08-17T15:37:58.454Z,4.10
2022-08-17T15:40:26.721Z,4.30
2022-08-17T15:42:54.822Z,4.57
2022-08-17T15:45:26.828Z,4.40
2022-08-17T15:47:55.176Z,3.92
2022-08-17T15:50:23.296Z,4.10
2022-08-17T15:52:56.801Z,4.70
2022-08-17T15:55:26.597Z,4.57
2022-08-17T15:57:54.911Z,4.40
2022-08-17T16:00:25.896Z,4.28
2022-08-17T16:03:14.448Z,4.72
2022-08-17T16:05:42.536Z,4.50
2022-08-17T16:08:11.184Z,4.13
2022-08-17T16:10:39.427Z,3.95
2022-08-17T16:13:17.793Z,4.05
2022-08-17T16:15:56.969Z,4.35
2022-08-17T16:18:26.451Z,4.45
2022-08-17T16:20:55.124Z,4.30
2022-08-17T16:23:23.902Z,4.13
2022-08-17T16:25:53.876Z,4.18
2022-08-17T16:28:35.956Z,4.35
2022-08-17T16:31:08.222Z,4.40
2022-08-17T16:33:39.649Z,4.70
2022-08-17T16:36:08.437Z,4.13
2022-08-17T16:38:36.745Z,4.72
2022-08-17T16:41:05.188Z,4.32
2022-08-17T16:43:34.076Z,4.93
2022-08-17T16:46:02.796Z,4.57
2022-08-17T16:48:32.365Z,4.72
2022-08-17T16:51:03.520Z,4.30
2022-08-17T16:53:32.797Z,4.40
2022-08-17T16:56:00.891Z,4.50
2022-08-17T16:58:29.109Z,4.15
2022-08-17T17:00:59.470Z,4.22
2022-08-17T17:03:29.598Z,5.07
2022-08-17T17:06:07.144Z,4.60
2022-08-17T17:08:43.670Z,5.03
2022-08-17T17:11:15.743Z,4.57
2022-08-17T17:13:47.143Z,4.63
2022-08-17T17:16:21.666Z,4.68
2022-08-17T17:19:01.685Z,4.55
2022-08-17T17:21:35.267Z,4.88
2022-08-17T17:24:07.163Z,4.60
2022-08-17T17:26:45.411Z,4.85
2022-08-17T17:29:25.658Z,5.07
2022-08-17T17:31:58.428Z,5.45
2022-08-17T17:34:35.728Z,4.97
2022-08-17T17:37:09.837Z,5.35
2022-08-17T17:39:43.852Z,5.13
2022-08-17T17:42:14.559Z,4.90
2022-08-17T17:44:50.710Z,5.43
2022-08-17T17:47:18.649Z,5.05
2022-08-17T17:49:48.590Z,5.63
2022-08-17T17:52:22.495Z,5.78
2022-08-17T17:54:58.744Z,5.18
2022-08-17T17:57:33.196Z,4.78
2022-08-17T18:00:05.990Z,5.65
2022-08-17T18:02:53.739Z,5.60
2022-08-17T18:05:36.547Z,4.05
2022-08-17T18:08:16.527Z,3.50
2022-08-17T18:10:51.389Z,3.60
2022-08-17T18:13:33.772Z,3.25
2022-08-17T18:16:02.014Z,4.13
2022-08-17T18:18:38.782Z,4.20
2022-08-17T18:21:15.074Z,4.57
2022-08-17T18:23:54.486Z,4.28
2022-08-17T18:26:42.066Z,4.18
2022-08-17T18:29:23.467Z,4.00
2022-08-17T18:32:14.359Z,3.45
2022-08-17T18:34:47.515Z,3.78
2022-08-17T18:37:32.439Z,2.35
2022-08-17T18:40:23.557Z,2.53
2022-08-17T18:43:00.180Z,2.40
2022-08-17T18:45:35.272Z,2.90
2022-08-17T18:48:05.746Z,1.00
2022-08-17T18:50:39.650Z,1.33
2022-08-17T18:53:34.726Z,1.15
2022-08-17T18:56:35.087Z,1.02
2022-08-17T18:59:11.388Z,1.95
2022-08-17T19:01:53.381Z,1.23
2022-08-17T19:04:34.566Z,1.10
2022-08-17T19:07:14.006Z,1.80
2022-08-17T19:09:45.149Z,1.90
2022-08-17T19:12:27.158Z,1.92
2022-08-17T19:14:56.817Z,2.17
2022-08-17T19:17:29.336Z,1.65
2022-08-17T19:20:01.666Z,2.08
2022-08-17T19:22:37.329Z,1.50
2022-08-17T19:25:10.816Z,1.52
2022-08-17T19:27:49.194Z,1.40
2022-08-17T19:30:20.417Z,1.42
2022-08-17T19:32:48.540Z,1.75
2022-08-17T19:35:20.142Z,1.40
2022-08-17T19:37:56.520Z,1.60
2022-08-17T19:40:51.822Z,1.63
2022-08-17T19:43:26.804Z,1.48
2022-08-17T19:45:59.311Z,1.27
2022-08-17T19:48:40.320Z,1.80
2022-08-17T19:51:12.778Z,1.35
2022-08-17T19:54:04.243Z,1.80
2022-08-17T19:56:44.902Z,1.42
2022-08-17T19:59:18.031Z,1.40
2022-08-17T20:01:52.745Z,1.40
2022-08-17T20:04:34.599Z,1.45
2022-08-17T20:07:07.951Z,1.52
2022-08-17T20:09:38.351Z,1.50
2022-08-17T20:12:10.546Z,1.70
2022-08-17T20:14:53.479Z,1.63
2022-08-17T20:17:24.185Z,1.45
2022-08-17T20:19:55.483Z,1.70
2022-08-17T20:22:30.391Z,1.30
2022-08-17T20:25:13.877Z,1.40
2022-08-17T20:27:52.555Z,1.50
2022-08-17T20:30:38.416Z,1.60
2022-08-17T20:33:08.376Z,1.50
2022-08-17T20:35:41.333Z,1.63
2022-08-17T20:38:11.601Z,2.00
2022-08-17T20:40:41.473Z,2.00
2022-08-17T20:43:44.352Z,1.90
2022-08-17T20:46:28.406Z,2.08
2022-08-17T20:48:58.795Z,2.00
2022-08-17T20:51:33.447Z,2.00
2022-08-17T20:54:37.223Z,2.00
2022-08-17T20:57:06.106Z,1.92
2022-08-17T21:00:04.370Z,2.25
2022-08-17T21:02:33.701Z,2.20
2022-08-17T21:05:21.872Z,2.17
2022-08-17T21:07:55.709Z,2.25
2022-08-17T21:10:38.804Z,2.15
2022-08-17T21:13:34.865Z,2.25
2022-08-17T21:16:08.799Z,1.90
2022-08-17T21:18:43.488Z,2.05
2022-08-17T21:21:19.965Z,2.20
2022-08-17T21:24:04.565Z,2.05
2022-08-17T21:26:50.538Z,2.00
2022-08-17T21:29:32.420Z,2.33
2022-08-17T21:32:24.318Z,3.65
2022-08-17T21:35:30.010Z,2.40
2022-08-17T21:38:03.596Z,2.42
2022-08-17T21:40:33.641Z,2.90
2022-08-17T21:43:05.315Z,2.25
2022-08-17T21:45:36.644Z,2.17
2022-08-17T21:48:11.523Z,2.95
2022-08-17T21:50:41.659Z,2.25
2022-08-17T21:53:14.648Z,2.55
2022-08-17T21:55:42.599Z,2.40
2022-08-17T21:58:28.904Z,2.55
2022-08-17T22:01:23.800Z,2.55
2022-08-17T22:04:03.321Z,2.90
2022-08-17T22:06:38.113Z,2.55
2022-08-17T22:09:15.544Z,6.00
2022-08-17T22:12:06.428Z,2.92
2022-08-17T22:14:52.485Z,3.58
2022-08-17T22:17:23.699Z,2.63
2022-08-17T22:19:52.934Z,2.75
2022-08-17T22:22:27.887Z,2.90
2022-08-17T22:24:58.934Z,3.38
2022-08-17T22:27:47.165Z,6.35
2022-08-17T22:30:20.168Z,3.33
2022-08-17T22:32:49.334Z,3.08
2022-08-17T22:35:36.588Z,2.97
2022-08-17T22:38:29.351Z,2.85
2022-08-17T22:41:21.979Z,3.20
2022-08-17T22:43:50.391Z,3.17
2022-08-17T22:46:21.449Z,3.30
2022-08-17T22:48:51.315Z,7.63
2022-08-17T22:51:21.536Z,3.55
2022-08-17T22:54:09.555Z,3.63
2022-08-17T22:56:56.698Z,3.75
2022-08-17T22:59:49.639Z,3.63
2022-08-17T23:02:28.215Z,3.65
2022-08-17T23:04:59.380Z,4.00
2022-08-17T23:07:27.326Z,4.90
2022-08-17T23:09:55.673Z,3.77
2022-08-17T23:12:27.887Z,3.63
2022-08-17T23:15:01.631Z,3.70
2022-08-17T23:17:33.852Z,3.47
2022-08-17T23:20:06.010Z,4.10
2022-08-17T23:22:34.350Z,3.35
2022-08-17T23:25:03.730Z,3.43
2022-08-17T23:27:33.109Z,5.45
2022-08-17T23:30:01.181Z,4.15
2022-08-17T23:32:29.229Z,3.57
2022-08-17T23:34:59.190Z,3.60
2022-08-17T23:37:27.921Z,3.55
2022-08-17T23:39:55.923Z,3.42
2022-08-17T23:42:24.100Z,3.70
2022-08-17T23:44:53.464Z,4.13
2022-08-17T23:47:21.405Z,3.80
2022-08-17T23:49:49.390Z,3.97
2022-08-17T23:52:22.774Z,3.43
2022-08-17T23:54:50.740Z,3.58
2022-08-17T23:57:33.375Z,3.70
